Skip Navigation LinksHome page > Weather > Current weather Skip Navigation Links

Current Weather

Ronald Reagan Washington National, Washington

For information only: do not use for flight planning or navigation.
Latest weather
Observation time Thursday, November 21, 2019 4:52 PM EST
Local time Thursday, November 21, 2019 5:30 PM EST
Flight conditions Visual Meteorological Conditions
Winds
Wind direction South (180°)
Wind speed 8 mph
Visibility 10 mi.
Sky condition
Ceiling 23,000 ft. broken clouds
Cloud layer scattered clouds 19,000 ft.
Cloud layer broken clouds 23,000 ft.
Temperature 51°F
Dewpoint 36°F
Altimeter 30.14 in.Hg
Derived measurements
Relative humidity 56%
Density altitude -653 ft.
Sea-level pressure 30.14 in.Hg
Remarks
Automated weather observing station with precipitation discriminator.
METAR KDCA 212152Z 18007KT 10SM SCT190 BKN230 11/02 A3014 RMK AO2 SLP207 T01060022

Settings

Location code

InnerDrive.Weather 4.0.6770.0 Release CLR 4.0.30319.42000
Copyright ©2018 Inner Drive Technology. All rights reserved. Portions Copyright ©1986-2018 David Braverman.

Find weather

Site navigation


Skip Navigation Links

Place info

Page info

PayPal - The safer, easier way to pay online!

Return home.

Copyright ©2019 Inner Drive Technology. Purveyors of fine, hand-crafted computer software. Page printed 2019-11-21T22:30:54 UTC.